Time;durP1;ratioP1;P1;durP2;ratioP2;P2;SDS_P1;SDS_P2;PMS_P1;PMS_P2;Temp;Humidity;BMP_temperature;BMP_pressure;BME280_temperature;BME280_humidity;BME280_pressure;Samples;Min_cycle;Max_cycle;Signal;HPM_P1;HPM_P2
2022/08/10 00:01:53;;;;;;;9.30;8.50;;;;;;;;;;5014570;28;20036;-73
2022/08/10 00:04:20;;;;;;;10.13;9.23;;;;;;;;;;5009996;28;20486;-73
2022/08/10 00:06:46;;;;;;;9.40;8.68;;;;;;;;;;5006870;28;20045;-74
2022/08/10 00:09:12;;;;;;;9.63;8.77;;;;;;;;;;5008781;28;20079;-73
2022/08/10 00:11:38;;;;;;;10.30;9.10;;;;;;;;;;5013013;28;20022;-73
2022/08/10 00:14:05;;;;;;;10.00;8.93;;;;;;;;;;5011338;28;20022;-73
2022/08/10 00:16:31;;;;;;;9.85;8.85;;;;;;;;;;5008036;28;20034;-73
2022/08/10 00:18:57;;;;;;;9.10;8.30;;;;;;;;;;5012044;28;20030;-74
2022/08/10 00:21:23;;;;;;;9.65;8.85;;;;;;;;;;5017907;28;20025;-74
2022/08/10 00:23:49;;;;;;;9.45;8.52;;;;;;;;;;5011956;28;20028;-73
2022/08/10 00:26:15;;;;;;;9.95;8.95;;;;;;;;;;5013493;28;20032;-74
2022/08/10 00:28:41;;;;;;;9.73;8.90;;;;;;;;;;5017306;28;20046;-74
2022/08/10 00:31:08;;;;;;;9.45;8.63;;;;;;;;;;5010078;28;20033;-74
2022/08/10 00:33:34;;;;;;;9.52;8.68;;;;;;;;;;5016260;28;20040;-73
2022/08/10 00:36:00;;;;;;;9.57;8.77;;;;;;;;;;5014824;28;20107;-74
2022/08/10 00:38:26;;;;;;;9.80;8.82;;;;;;;;;;5015034;28;20033;-73
2022/08/10 00:40:52;;;;;;;9.63;8.82;;;;;;;;;;5016861;28;20165;-73
2022/08/10 00:43:18;;;;;;;9.60;8.70;;;;;;;;;;5021065;28;20045;-73
2022/08/10 00:45:45;;;;;;;9.98;9.00;;;;;;;;;;5016412;28;20045;-73
2022/08/10 00:48:11;;;;;;;12.27;9.35;;;;;;;;;;5012914;28;20017;-73
2022/08/10 00:50:37;;;;;;;14.70;9.10;;;;;;;;;;5006118;28;20014;-73
2022/08/10 00:53:03;;;;;;;13.15;8.80;;;;;;;;;;5002594;28;20485;-73
2022/08/10 00:55:29;;;;;;;9.27;8.48;;;;;;;;;;5008116;28;20596;-74
2022/08/10 00:57:56;;;;;;;8.93;8.13;;;;;;;;;;5005555;28;20271;-74
2022/08/10 01:00:23;;;;;;;9.57;8.68;;;;;;;;;;5004224;28;20379;-73
2022/08/10 01:02:49;;;;;;;9.63;8.05;;;;;;;;;;5006763;28;20072;-74
2022/08/10 01:05:15;;;;;;;8.38;7.68;;;;;;;;;;5002511;28;20041;-73
2022/08/10 01:07:49;;;;;;;9.25;8.30;;;;;;;;;;5004167;28;20022;-74
2022/08/10 01:10:20;;;;;;;8.65;7.85;;;;;;;;;;5003233;28;20034;-73
2022/08/10 01:12:49;;;;;;;9.40;8.45;;;;;;;;;;5002435;28;20033;-73
2022/08/10 01:15:15;;;;;;;8.73;7.70;;;;;;;;;;5000700;28;20038;-73
2022/08/10 01:17:42;;;;;;;9.57;8.38;;;;;;;;;;5002055;28;20030;-73
2022/08/10 01:20:20;;;;;;;9.00;8.10;;;;;;;;;;5003337;28;20018;-74
2022/08/10 01:23:17;;;;;;;8.70;7.90;;;;;;;;;;5003193;28;20030;-73
2022/08/10 01:25:56;;;;;;;9.65;8.13;;;;;;;;;;4999778;28;20409;-74
2022/08/10 01:28:46;;;;;;;8.95;8.18;;;;;;;;;;4998397;28;20046;-74
2022/08/10 01:31:14;;;;;;;11.45;8.52;;;;;;;;;;4995073;28;20417;-73
2022/08/10 01:33:43;;;;;;;9.05;8.25;;;;;;;;;;5003872;28;20084;-73
2022/08/10 01:36:15;;;;;;;9.00;8.30;;;;;;;;;;5000807;28;20034;-73
2022/08/10 01:38:44;;;;;;;9.20;8.40;;;;;;;;;;5003643;28;20026;-74
2022/08/10 01:41:24;;;;;;;9.25;8.45;;;;;;;;;;5000982;28;20479;-73
2022/08/10 01:43:59;;;;;;;8.65;7.75;;;;;;;;;;5006115;28;20030;-74
2022/08/10 01:46:26;;;;;;;11.88;8.52;;;;;;;;;;5006820;28;20036;-73
2022/08/10 01:48:53;;;;;;;9.60;8.65;;;;;;;;;;5004921;28;20022;-73
2022/08/10 01:51:24;;;;;;;9.45;8.43;;;;;;;;;;5005317;28;20095;-73
2022/08/10 01:53:55;;;;;;;9.27;8.48;;;;;;;;;;5006800;28;20025;-73
2022/08/10 01:56:23;;;;;;;8.93;8.23;;;;;;;;;;4999671;28;20200;-73
2022/08/10 01:58:50;;;;;;;8.88;8.07;;;;;;;;;;4996820;28;20026;-73
2022/08/10 02:01:18;;;;;;;9.75;8.73;;;;;;;;;;5007099;28;20025;-74
2022/08/10 02:03:46;;;;;;;9.13;8.43;;;;;;;;;;5005166;28;20033;-74
2022/08/10 02:06:13;;;;;;;14.75;8.35;;;;;;;;;;4999438;28;20034;-73
2022/08/10 02:08:41;;;;;;;9.32;8.43;;;;;;;;;;5006602;28;20049;-74
2022/08/10 02:11:08;;;;;;;8.85;8.15;;;;;;;;;;5002841;28;20026;-73
2022/08/10 02:13:35;;;;;;;14.02;8.57;;;;;;;;;;5005162;28;20087;-73
2022/08/10 02:16:02;;;;;;;9.85;8.85;;;;;;;;;;5004411;28;20214;-73
2022/08/10 02:18:30;;;;;;;11.88;8.60;;;;;;;;;;5003477;28;20114;-74
2022/08/10 02:20:58;;;;;;;9.38;8.57;;;;;;;;;;5007270;28;20026;-73
2022/08/10 02:23:26;;;;;;;10.82;8.98;;;;;;;;;;5004899;28;20072;-73
2022/08/10 02:25:53;;;;;;;9.23;8.20;;;;;;;;;;5010175;28;20033;-73
2022/08/10 02:28:21;;;;;;;9.70;8.70;;;;;;;;;;5005496;28;20108;-73
2022/08/10 02:30:49;;;;;;;9.25;8.55;;;;;;;;;;5010678;28;20041;-74
2022/08/10 02:33:16;;;;;;;8.82;8.13;;;;;;;;;;5005720;28;20037;-73
2022/08/10 02:35:44;;;;;;;9.57;8.77;;;;;;;;;;5004740;28;20026;-73
2022/08/10 02:38:12;;;;;;;10.10;9.05;;;;;;;;;;5004245;28;20052;-73
2022/08/10 02:40:42;;;;;;;10.50;8.80;;;;;;;;;;5004698;28;20526;-73
2022/08/10 02:43:24;;;;;;;9.35;8.57;;;;;;;;;;5012924;28;20025;-74
2022/08/10 02:45:54;;;;;;;10.15;8.88;;;;;;;;;;5006613;28;20249;-73
2022/08/10 02:48:22;;;;;;;9.10;8.35;;;;;;;;;;5009241;28;20013;-74
2022/08/10 02:50:59;;;;;;;9.82;8.95;;;;;;;;;;5003201;28;20029;-73
2022/08/10 02:53:31;;;;;;;11.00;8.82;;;;;;;;;;5002081;28;20057;-74
2022/08/10 02:56:03;;;;;;;9.52;8.70;;;;;;;;;;5005716;28;20108;-73
2022/08/10 02:58:33;;;;;;;9.40;8.50;;;;;;;;;;5005184;28;20029;-73
2022/08/10 03:01:02;;;;;;;9.85;8.98;;;;;;;;;;5001855;28;20029;-73
2022/08/10 03:03:30;;;;;;;8.85;8.15;;;;;;;;;;4999269;28;20076;-73
2022/08/10 03:05:59;;;;;;;9.82;8.27;;;;;;;;;;5003810;28;20041;-73
2022/08/10 03:08:28;;;;;;;10.63;9.00;;;;;;;;;;5005638;28;20493;-74
2022/08/10 03:10:55;;;;;;;10.65;9.10;;;;;;;;;;5005366;28;20029;-73
2022/08/10 03:13:21;;;;;;;13.35;9.00;;;;;;;;;;5007304;28;20022;-73
2022/08/10 03:15:48;;;;;;;9.48;8.57;;;;;;;;;;5001659;28;20030;-73
2022/08/10 03:18:15;;;;;;;9.52;8.73;;;;;;;;;;5003228;28;20385;-73
2022/08/10 03:20:42;;;;;;;9.32;8.52;;;;;;;;;;5003348;28;20033;-73
2022/08/10 03:23:13;;;;;;;10.40;9.50;;;;;;;;;;5006431;28;20386;-74
2022/08/10 03:25:39;;;;;;;9.93;9.03;;;;;;;;;;5000700;28;20115;-73
2022/08/10 03:28:06;;;;;;;9.32;8.52;;;;;;;;;;5005010;28;20061;-74
2022/08/10 03:30:32;;;;;;;9.02;8.32;;;;;;;;;;5004500;28;20080;-74
2022/08/10 03:33:00;;;;;;;9.65;8.75;;;;;;;;;;5004186;28;20050;-73
2022/08/10 03:35:26;;;;;;;9.30;8.50;;;;;;;;;;5006787;28;20017;-73
2022/08/10 03:37:53;;;;;;;10.25;8.85;;;;;;;;;;5000624;28;20021;-73
2022/08/10 03:40:19;;;;;;;9.45;8.60;;;;;;;;;;5005195;28;20069;-74
2022/08/10 03:42:47;;;;;;;10.57;9.50;;;;;;;;;;5005496;28;20026;-73
2022/08/10 03:45:13;;;;;;;9.80;8.90;;;;;;;;;;5005941;28;20529;-73
2022/08/10 03:47:41;;;;;;;11.77;9.02;;;;;;;;;;5005544;28;20437;-74
2022/08/10 03:50:08;;;;;;;9.43;8.52;;;;;;;;;;5010850;28;20017;-74
2022/08/10 03:52:34;;;;;;;9.38;8.57;;;;;;;;;;5010785;28;20026;-73
2022/08/10 03:55:01;;;;;;;9.88;9.00;;;;;;;;;;5008322;28;20500;-74
2022/08/10 03:57:28;;;;;;;9.43;8.43;;;;;;;;;;5004451;28;20032;-73
2022/08/10 03:59:55;;;;;;;9.25;8.48;;;;;;;;;;5008138;28;20053;-73
2022/08/10 04:02:21;;;;;;;9.60;8.80;;;;;;;;;;5008773;28;20025;-73
2022/08/10 04:04:48;;;;;;;9.65;8.75;;;;;;;;;;5005097;28;20044;-73
2022/08/10 04:07:14;;;;;;;10.35;9.27;;;;;;;;;;5000133;28;20045;-73
2022/08/10 04:09:40;;;;;;;10.00;8.90;;;;;;;;;;5001792;28;20044;-73
2022/08/10 04:12:07;;;;;;;10.00;9.00;;;;;;;;;;5005461;28;20058;-73
2022/08/10 04:14:33;;;;;;;9.38;8.57;;;;;;;;;;5003752;28;20397;-73
2022/08/10 04:16:59;;;;;;;10.38;9.38;;;;;;;;;;5002771;28;20034;-73
2022/08/10 04:19:27;;;;;;;13.18;9.77;;;;;;;;;;5002340;28;20026;-73
2022/08/10 04:22:19;;;;;;;10.52;9.27;;;;;;;;;;4999725;28;20037;-73
2022/08/10 04:24:46;;;;;;;10.07;9.27;;;;;;;;;;5000741;28;20038;-73
2022/08/10 04:27:13;;;;;;;13.48;9.40;;;;;;;;;;5005425;28;20617;-73
2022/08/10 04:29:40;;;;;;;9.98;9.05;;;;;;;;;;5008198;28;20058;-74
2022/08/10 04:32:07;;;;;;;12.05;8.68;;;;;;;;;;5006413;28;20349;-73
2022/08/10 04:34:35;;;;;;;10.98;9.85;;;;;;;;;;5010456;28;20018;-73
2022/08/10 04:37:04;;;;;;;14.25;9.93;;;;;;;;;;5010996;28;20033;-74
2022/08/10 04:39:30;;;;;;;10.45;9.50;;;;;;;;;;5006411;28;20445;-73
2022/08/10 04:41:56;;;;;;;10.98;9.93;;;;;;;;;;5003901;28;20449;-73
2022/08/10 04:44:23;;;;;;;11.23;9.88;;;;;;;;;;5003935;28;20533;-73
2022/08/10 04:46:49;;;;;;;10.48;9.48;;;;;;;;;;5009049;28;20030;-73
2022/08/10 04:49:16;;;;;;;11.60;9.63;;;;;;;;;;5009922;28;20022;-73
2022/08/10 04:51:42;;;;;;;15.43;9.80;;;;;;;;;;5007598;28;20028;-73
2022/08/10 04:54:08;;;;;;;13.27;9.75;;;;;;;;;;5010848;28;20022;-74
2022/08/10 04:56:37;;;;;;;10.43;9.27;;;;;;;;;;4999923;28;20025;-73
2022/08/10 04:59:05;;;;;;;10.38;9.45;;;;;;;;;;5010919;28;20478;-74
2022/08/10 05:01:31;;;;;;;9.82;8.93;;;;;;;;;;5008159;28;20026;-73
2022/08/10 05:03:57;;;;;;;10.40;9.30;;;;;;;;;;5006848;28;20490;-73
2022/08/10 05:06:23;;;;;;;15.48;9.80;;;;;;;;;;5001208;28;20657;-73
2022/08/10 05:08:50;;;;;;;13.15;10.55;;;;;;;;;;4999566;28;20029;-73
2022/08/10 05:11:16;;;;;;;13.13;10.20;;;;;;;;;;5001868;28;20489;-73
2022/08/10 05:13:42;;;;;;;11.43;10.18;;;;;;;;;;5003707;28;20096;-73
2022/08/10 05:16:08;;;;;;;12.05;9.45;;;;;;;;;;5005533;28;20405;-72
2022/08/10 05:18:34;;;;;;;11.10;9.82;;;;;;;;;;5000918;28;20022;-72
2022/08/10 05:21:00;;;;;;;10.95;9.88;;;;;;;;;;4999339;28;20040;-72
2022/08/10 05:23:26;;;;;;;14.13;9.73;;;;;;;;;;5005307;28;20080;-72
2022/08/10 05:25:53;;;;;;;14.13;11.23;;;;;;;;;;5002678;28;20045;-72
2022/08/10 05:28:19;;;;;;;15.70;11.35;;;;;;;;;;5004794;28;20410;-72
2022/08/10 05:30:45;;;;;;;10.50;9.43;;;;;;;;;;5002789;28;20465;-72
2022/08/10 05:33:11;;;;;;;9.45;8.55;;;;;;;;;;4996129;28;20105;-73
2022/08/10 05:35:37;;;;;;;18.85;11.38;;;;;;;;;;5003023;28;20037;-72
2022/08/10 05:38:05;;;;;;;11.45;9.27;;;;;;;;;;5004963;28;20032;-72
2022/08/10 05:40:31;;;;;;;11.05;9.45;;;;;;;;;;5000648;28;20028;-72
2022/08/10 05:42:57;;;;;;;10.43;9.35;;;;;;;;;;5006375;28;20037;-72
2022/08/10 05:45:27;;;;;;;10.02;9.10;;;;;;;;;;5011215;28;20362;-72
2022/08/10 05:47:54;;;;;;;10.73;9.43;;;;;;;;;;5002017;28;20274;-72
2022/08/10 05:50:26;;;;;;;10.88;9.50;;;;;;;;;;5004877;28;20033;-72
2022/08/10 05:52:52;;;;;;;11.38;10.07;;;;;;;;;;5004098;28;20029;-72
2022/08/10 05:55:18;;;;;;;14.73;10.77;;;;;;;;;;5004883;28;20022;-72
2022/08/10 05:57:45;;;;;;;10.90;9.77;;;;;;;;;;5006271;28;20022;-72
2022/08/10 06:00:14;;;;;;;12.30;9.60;;;;;;;;;;5002500;28;20275;-72
2022/08/10 06:02:42;;;;;;;12.75;9.23;;;;;;;;;;5009144;28;20052;-71
2022/08/10 06:05:08;;;;;;;10.50;9.50;;;;;;;;;;5010206;28;20040;-71
2022/08/10 06:07:36;;;;;;;9.88;9.02;;;;;;;;;;5011065;28;20030;-71
2022/08/10 06:10:03;;;;;;;9.25;8.40;;;;;;;;;;5011543;28;20049;-71
2022/08/10 06:12:30;;;;;;;9.27;8.38;;;;;;;;;;5003899;28;20283;-72
2022/08/10 06:15:00;;;;;;;8.70;7.78;;;;;;;;;;4998373;28;21342;-72
2022/08/10 06:17:30;;;;;;;9.10;8.30;;;;;;;;;;5000744;28;20033;-72
2022/08/10 06:20:00;;;;;;;9.27;8.48;;;;;;;;;;5005741;28;20032;-72
2022/08/10 06:22:27;;;;;;;13.57;8.88;;;;;;;;;;4996090;28;20423;-73
2022/08/10 06:24:55;;;;;;;11.90;8.40;;;;;;;;;;5000865;28;20025;-72
2022/08/10 06:27:21;;;;;;;9.10;8.13;;;;;;;;;;5006474;28;20030;-72
2022/08/10 06:29:49;;;;;;;9.32;8.43;;;;;;;;;;5003286;28;20037;-72
2022/08/10 06:32:16;;;;;;;9.35;8.40;;;;;;;;;;4999677;28;20037;-72
2022/08/10 06:34:46;;;;;;;8.93;7.90;;;;;;;;;;5001257;28;20300;-72
2022/08/10 06:37:13;;;;;;;9.35;8.52;;;;;;;;;;4994902;28;20042;-72
2022/08/10 06:39:40;;;;;;;9.35;8.55;;;;;;;;;;5004526;28;20052;-72
2022/08/10 06:42:25;;;;;;;9.25;8.35;;;;;;;;;;5001794;28;20365;-72
2022/08/10 06:45:05;;;;;;;8.93;8.13;;;;;;;;;;4997561;28;20034;-72
2022/08/10 06:47:34;;;;;;;8.80;8.02;;;;;;;;;;5004772;28;20049;-72
2022/08/10 06:50:11;;;;;;;9.38;8.57;;;;;;;;;;5000013;28;20415;-72
2022/08/10 06:52:39;;;;;;;9.15;8.20;;;;;;;;;;5000012;28;20045;-72
2022/08/10 06:55:08;;;;;;;9.98;8.52;;;;;;;;;;5003228;28;20431;-72
2022/08/10 06:57:35;;;;;;;11.95;8.18;;;;;;;;;;5003433;28;20621;-72
2022/08/10 07:00:03;;;;;;;9.63;8.75;;;;;;;;;;4999938;28;20028;-72
2022/08/10 07:02:35;;;;;;;8.25;7.65;;;;;;;;;;5004221;28;20481;-72
2022/08/10 07:05:06;;;;;;;9.32;8.43;;;;;;;;;;5001990;28;20446;-71
2022/08/10 07:07:36;;;;;;;8.75;7.95;;;;;;;;;;4999746;28;20029;-72
2022/08/10 07:10:02;;;;;;;9.48;8.48;;;;;;;;;;5004495;28;20277;-72
2022/08/10 07:12:30;;;;;;;10.48;8.57;;;;;;;;;;5000034;28;20028;-72
2022/08/10 07:14:57;;;;;;;9.63;8.60;;;;;;;;;;5004565;28;20034;-71
2022/08/10 07:17:24;;;;;;;8.75;7.95;;;;;;;;;;5011649;28;20037;-72
2022/08/10 07:19:57;;;;;;;8.95;8.25;;;;;;;;;;5004802;28;20508;-72
2022/08/10 07:22:25;;;;;;;8.02;7.32;;;;;;;;;;5001099;28;20025;-71
2022/08/10 07:24:51;;;;;;;8.68;7.88;;;;;;;;;;5004371;28;20034;-72
2022/08/10 07:27:18;;;;;;;9.10;8.23;;;;;;;;;;4999880;28;20065;-72
2022/08/10 07:29:45;;;;;;;8.88;7.82;;;;;;;;;;5000635;28;20042;-71
2022/08/10 07:32:12;;;;;;;9.05;8.25;;;;;;;;;;5001433;28;20030;-72
2022/08/10 07:34:39;;;;;;;9.70;8.15;;;;;;;;;;4997049;28;20064;-72
2022/08/10 07:37:06;;;;;;;9.15;8.25;;;;;;;;;;5009341;28;20080;-72
2022/08/10 07:39:37;;;;;;;9.35;8.55;;;;;;;;;;4995869;28;20020;-72
2022/08/10 07:42:05;;;;;;;9.90;8.15;;;;;;;;;;5000513;28;20029;-72
2022/08/10 07:44:32;;;;;;;8.73;7.93;;;;;;;;;;4996733;28;20611;-72
2022/08/10 07:47:02;;;;;;;9.27;8.45;;;;;;;;;;4996417;28;20428;-72
2022/08/10 07:49:30;;;;;;;9.20;8.38;;;;;;;;;;5001995;28;20021;-72
2022/08/10 07:51:57;;;;;;;8.32;7.63;;;;;;;;;;5004994;28;20072;-72
2022/08/10 07:54:25;;;;;;;10.77;7.85;;;;;;;;;;5001713;28;20115;-72
2022/08/10 07:56:53;;;;;;;9.32;8.55;;;;;;;;;;5001804;28;20049;-73
2022/08/10 07:59:29;;;;;;;9.30;8.25;;;;;;;;;;5009660;28;20025;-73
2022/08/10 08:01:56;;;;;;;9.65;8.65;;;;;;;;;;5002993;28;20065;-73
2022/08/10 08:04:24;;;;;;;9.90;8.65;;;;;;;;;;5003963;28;20033;-73
2022/08/10 08:06:51;;;;;;;9.98;8.65;;;;;;;;;;5009145;28;20045;-72
2022/08/10 08:09:20;;;;;;;10.35;9.23;;;;;;;;;;5011919;28;20037;-73
2022/08/10 08:11:48;;;;;;;9.40;8.40;;;;;;;;;;5007659;28;20481;-72
2022/08/10 08:14:15;;;;;;;9.88;8.98;;;;;;;;;;5005570;28;20025;-72
2022/08/10 08:16:46;;;;;;;12.52;8.40;;;;;;;;;;5000937;28;20041;-72
2022/08/10 08:19:13;;;;;;;10.35;8.48;;;;;;;;;;5009281;28;20022;-72
2022/08/10 08:21:40;;;;;;;10.75;9.68;;;;;;;;;;5005356;28;20549;-73
2022/08/10 08:24:07;;;;;;;11.02;9.05;;;;;;;;;;5000838;28;20018;-73
2022/08/10 08:26:33;;;;;;;11.40;10.25;;;;;;;;;;4996572;28;20133;-73
2022/08/10 08:28:59;;;;;;;14.73;11.52;;;;;;;;;;4998521;28;20046;-72
2022/08/10 08:31:26;;;;;;;11.48;10.27;;;;;;;;;;4999325;28;20448;-72
2022/08/10 08:33:53;;;;;;;12.80;10.57;;;;;;;;;;5000701;28;20026;-72
2022/08/10 08:36:20;;;;;;;10.95;9.85;;;;;;;;;;5004727;28;20148;-72
2022/08/10 08:38:47;;;;;;;12.10;10.40;;;;;;;;;;4995682;28;20030;-72
2022/08/10 08:41:16;;;;;;;10.23;9.20;;;;;;;;;;4996965;28;20033;-73
2022/08/10 08:43:48;;;;;;;9.25;8.35;;;;;;;;;;5008104;28;20096;-73
2022/08/10 08:46:27;;;;;;;16.20;9.73;;;;;;;;;;4998454;28;20033;-72
2022/08/10 08:49:08;;;;;;;23.75;10.63;;;;;;;;;;5006477;28;20025;-73
2022/08/10 08:51:43;;;;;;;15.20;9.45;;;;;;;;;;5003791;28;20506;-72
2022/08/10 09:05:40;;;;;;;7.78;7.07;;;;;;;;;;5100638;27;20468;-70
2022/08/10 09:08:06;;;;;;;10.13;7.75;;;;;;;;;;5077544;28;20020;-70
2022/08/10 09:10:44;;;;;;;9.05;7.60;;;;;;;;;;5079693;28;20127;-70
2022/08/10 09:13:25;;;;;;;9.35;7.93;;;;;;;;;;5081797;28;20113;-70
2022/08/10 09:16:10;;;;;;;10.45;7.82;;;;;;;;;;5071419;28;20025;-70
2022/08/10 09:18:45;;;;;;;9.23;8.27;;;;;;;;;;5067028;28;20028;-70
2022/08/10 09:21:30;;;;;;;11.48;7.97;;;;;;;;;;5072736;28;20513;-70
2022/08/10 09:24:02;;;;;;;8.45;7.72;;;;;;;;;;5065936;28;20052;-69
2022/08/10 09:26:32;;;;;;;10.57;7.32;;;;;;;;;;5071867;28;20058;-70
2022/08/10 09:29:02;;;;;;;9.05;7.63;;;;;;;;;;5065341;28;20029;-70
2022/08/10 09:31:33;;;;;;;7.97;7.18;;;;;;;;;;5068630;28;20027;-70
2022/08/10 09:33:59;;;;;;;;;;;;;;;;;;5068195;28;20032;-73
2022/08/10 09:36:32;;;;;;;11.52;6.22;;;;;;;;;;5076326;28;19922;-70
2022/08/10 09:39:05;;;;;;;9.60;7.32;;;;;;;;;;5077245;28;20373;-70
2022/08/10 09:41:49;;;;;;;10.68;6.65;;;;;;;;;;5067393;28;20093;-70
2022/08/10 09:44:43;;;;;;;9.88;6.95;;;;;;;;;;5077864;28;20032;-70
2022/08/10 09:47:09;;;;;;;8.63;5.50;;;;;;;;;;5062315;28;20043;-70
2022/08/10 09:49:40;;;;;;;10.05;6.07;;;;;;;;;;5073625;28;20020;-71
2022/08/10 09:52:06;;;;;;;6.90;5.03;;;;;;;;;;5065683;28;21263;-71
2022/08/10 09:54:38;;;;;;;15.80;6.90;;;;;;;;;;5063511;28;20032;-71
2022/08/10 09:57:13;;;;;;;8.80;6.93;;;;;;;;;;5071407;28;20115;-71
2022/08/10 09:59:49;;;;;;;7.88;6.65;;;;;;;;;;5064518;28;20021;-71
2022/08/10 10:02:21;;;;;;;8.93;5.45;;;;;;;;;;5071558;28;20052;-71
2022/08/10 10:04:52;;;;;;;5.75;5.25;;;;;;;;;;5058089;28;20106;-71
2022/08/10 10:07:18;;;;;;;;;;;;;;;;;;5060486;28;20028;-70
2022/08/10 10:09:54;;;;;;;7.32;5.60;;;;;;;;;;5055300;28;19928;-73
2022/08/10 10:12:24;;;;;;;7.85;5.70;;;;;;;;;;5055692;28;20035;-71
2022/08/10 10:17:48;;;;;;;9.00;6.68;;;;;;;;;;5053469;28;20078;-74
2022/08/10 10:20:19;;;;;;;7.00;6.18;;;;;;;;;;5060848;28;20032;-71
2022/08/10 10:22:52;;;;;;;9.52;6.25;;;;;;;;;;5052687;28;20374;-71
2022/08/10 10:25:21;;;;;;;6.18;5.57;;;;;;;;;;5056879;28;20542;-71
2022/08/10 10:28:02;;;;;;;8.80;5.97;;;;;;;;;;5055742;28;20174;-69
2022/08/10 10:30:32;;;;;;;7.82;6.28;;;;;;;;;;5059414;28;20029;-71
2022/08/10 10:33:24;;;;;;;8.03;5.57;;;;;;;;;;5058061;28;20651;-71
2022/08/10 10:35:52;;;;;;;5.78;5.28;;;;;;;;;;5055834;28;20254;-71
2022/08/10 10:38:21;;;;;;;6.47;5.68;;;;;;;;;;5055630;28;20076;-61
2022/08/10 10:40:50;;;;;;;6.60;5.88;;;;;;;;;;5066702;28;20491;-71
2022/08/10 10:43:35;;;;;;;5.90;5.07;;;;;;;;;;5052905;28;20982;-71
2022/08/10 10:46:07;;;;;;;5.03;4.53;;;;;;;;;;5055066;28;20024;-71
2022/08/10 10:48:52;;;;;;;4.15;3.75;;;;;;;;;;5054063;28;20067;-72
2022/08/10 10:51:21;;;;;;;3.58;3.30;;;;;;;;;;5050701;28;20503;-74
2022/08/10 10:54:06;;;;;;;3.58;3.28;;;;;;;;;;5050460;28;20044;-71
2022/08/10 10:56:44;;;;;;;3.67;3.17;;;;;;;;;;5058339;28;20079;-71
2022/08/10 10:59:29;;;;;;;3.33;2.67;;;;;;;;;;5052116;28;20024;-70
2022/08/10 11:02:04;;;;;;;3.97;2.47;;;;;;;;;;5053371;28;20025;-70
2022/08/10 11:04:42;;;;;;;2.95;2.70;;;;;;;;;;5051026;28;20116;-71
2022/08/10 11:07:17;;;;;;;3.72;3.42;;;;;;;;;;5051629;28;20061;-71
2022/08/10 11:09:53;;;;;;;3.67;3.38;;;;;;;;;;5055625;28;20649;-71
2022/08/10 11:12:23;;;;;;;3.33;3.03;;;;;;;;;;5060561;28;20033;-70
2022/08/10 11:14:58;;;;;;;3.33;3.03;;;;;;;;;;5052263;28;20487;-71
2022/08/10 11:17:33;;;;;;;3.55;3.25;;;;;;;;;;5050184;28;20267;-70
2022/08/10 11:20:12;;;;;;;3.33;2.95;;;;;;;;;;5058841;28;20066;-75
2022/08/10 11:22:47;;;;;;;4.22;3.30;;;;;;;;;;5046442;28;20024;-71
2022/08/10 11:25:35;;;;;;;4.22;3.85;;;;;;;;;;5051136;28;20119;-71
2022/08/10 11:28:10;;;;;;;4.75;3.75;;;;;;;;;;5059930;28;20379;-71
2022/08/10 11:30:46;;;;;;;5.63;3.78;;;;;;;;;;5053625;28;20021;-70
2022/08/10 11:33:12;;;;;;;4.28;3.88;;;;;;;;;;5054514;28;20408;-71
2022/08/10 11:35:43;;;;;;;4.00;3.70;;;;;;;;;;5049478;28;20033;-79
2022/08/10 11:38:09;;;;;;;5.00;3.90;;;;;;;;;;5056029;28;20024;-71
2022/08/10 11:40:43;;;;;;;4.45;4.05;;;;;;;;;;5050795;28;20035;-71
2022/08/10 11:43:09;;;;;;;5.20;4.35;;;;;;;;;;5051710;28;20583;-71
2022/08/10 11:45:36;;;;;;;6.13;4.38;;;;;;;;;;5052664;28;20152;-71
2022/08/10 11:48:12;;;;;;;5.25;3.97;;;;;;;;;;5054380;28;20636;-70
2022/08/10 11:50:58;;;;;;;4.43;3.90;;;;;;;;;;5052092;28;20666;-73
2022/08/10 11:53:48;;;;;;;7.53;5.00;;;;;;;;;;5054959;28;20039;-76
2022/08/10 11:56:17;;;;;;;6.25;5.00;;;;;;;;;;5042785;28;20452;-77
2022/08/10 12:01:31;;;;;;;6.40;4.82;;;;;;;;;;5041743;28;20055;-70
2022/08/10 12:03:59;;;;;;;5.65;4.40;;;;;;;;;;5040194;28;20504;-71
2022/08/10 12:06:26;;;;;;;5.78;4.82;;;;;;;;;;5043100;28;20037;-71
2022/08/10 12:08:54;;;;;;;5.25;4.60;;;;;;;;;;5053719;28;20032;-73
2022/08/10 12:11:28;;;;;;;8.38;5.03;;;;;;;;;;5061458;28;20025;-77
2022/08/10 12:13:57;;;;;;;4.40;4.00;;;;;;;;;;5060460;28;20042;-78
2022/08/10 12:16:25;;;;;;;5.63;3.95;;;;;;;;;;5061351;28;20021;-71
2022/08/10 12:18:57;;;;;;;8.25;4.20;;;;;;;;;;5059938;28;20099;-72
2022/08/10 12:21:27;;;;;;;4.85;3.80;;;;;;;;;;5061829;28;20028;-80
2022/08/10 12:23:59;;;;;;;4.63;3.93;;;;;;;;;;5059245;28;20028;-73
2022/08/10 12:26:27;;;;;;;3.95;3.65;;;;;;;;;;5050103;28;20020;-80
2022/08/10 12:28:54;;;;;;;5.63;4.07;;;;;;;;;;5061352;28;20052;-71
2022/08/10 12:31:43;;;;;;;4.15;3.75;;;;;;;;;;5061262;28;20379;-71
2022/08/10 12:34:24;;;;;;;6.13;4.07;;;;;;;;;;5048982;28;20083;-71
2022/08/10 12:36:50;;;;;;;;;;;;;;;;;;5058053;28;20033;-72
2022/08/10 12:39:19;;;;;;;4.90;4.00;;;;;;;;;;5057856;28;19966;-72
2022/08/10 12:41:48;;;;;;;4.82;4.43;;;;;;;;;;5054414;28;20028;-73
2022/08/10 12:44:17;;;;;;;5.07;4.57;;;;;;;;;;5060965;28;20055;-71
2022/08/10 12:46:59;;;;;;;6.22;5.60;;;;;;;;;;5059283;28;20028;-71
2022/08/10 12:49:25;;;;;;;;;;;;;;;;;;5061322;28;20025;-72
2022/08/10 12:52:11;;;;;;;5.05;4.60;;;;;;;;;;5060597;28;19911;-71
2022/08/10 12:54:38;;;;;;;5.45;4.95;;;;;;;;;;5058990;28;20030;-71
2022/08/10 12:57:09;;;;;;;5.90;5.40;;;;;;;;;;5060643;28;20017;-71
2022/08/10 12:59:37;;;;;;;6.22;5.45;;;;;;;;;;5060687;28;20032;-71
2022/08/10 13:02:04;;;;;;;8.35;5.50;;;;;;;;;;5061192;28;20024;-71
2022/08/10 13:04:31;;;;;;;5.65;5.20;;;;;;;;;;5058985;28;20058;-71
2022/08/10 13:06:59;;;;;;;9.75;5.95;;;;;;;;;;5046286;28;20020;-71
2022/08/10 13:09:26;;;;;;;6.75;6.03;;;;;;;;;;5060745;28;20016;-71
2022/08/10 13:11:58;;;;;;;11.07;6.68;;;;;;;;;;5060705;28;20039;-71
2022/08/10 13:14:31;;;;;;;8.65;6.15;;;;;;;;;;5060393;28;20135;-71
2022/08/10 13:16:58;;;;;;;9.90;6.43;;;;;;;;;;5060409;28;20025;-71
2022/08/10 13:19:26;;;;;;;23.73;7.63;;;;;;;;;;5053234;28;20099;-72
2022/08/10 13:21:53;;;;;;;6.43;5.63;;;;;;;;;;5055120;28;20492;-71
2022/08/10 13:24:23;;;;;;;9.88;6.72;;;;;;;;;;5057623;28;20608;-72
2022/08/10 13:26:51;;;;;;;8.68;6.13;;;;;;;;;;5054248;28;20106;-71
2022/08/10 13:29:19;;;;;;;7.10;6.25;;;;;;;;;;5046847;28;20119;-72
2022/08/10 13:31:47;;;;;;;6.78;6.07;;;;;;;;;;5040008;28;20049;-72
2022/08/10 13:34:25;;;;;;;8.75;7.10;;;;;;;;;;5042800;28;20029;-72
2022/08/10 13:36:54;;;;;;;10.77;6.93;;;;;;;;;;5040436;28;20029;-71
2022/08/10 13:39:23;;;;;;;11.35;6.90;;;;;;;;;;5040319;28;20047;-73
2022/08/10 13:41:51;;;;;;;9.38;6.43;;;;;;;;;;5044162;28;20025;-72
2022/08/10 13:44:27;;;;;;;7.97;6.38;;;;;;;;;;5042302;28;20578;-72
2022/08/10 13:46:53;;;;;;;7.22;6.57;;;;;;;;;;5044387;28;20028;-72
2022/08/10 13:49:23;;;;;;;8.45;6.43;;;;;;;;;;5044041;28;20028;-72
2022/08/10 13:51:50;;;;;;;15.82;6.55;;;;;;;;;;5043955;28;20044;-72
2022/08/10 13:54:16;;;;;;;7.00;6.30;;;;;;;;;;5043873;28;20037;-72
2022/08/10 13:56:44;;;;;;;7.20;6.60;;;;;;;;;;5042761;28;20017;-73
2022/08/10 13:59:12;;;;;;;7.63;6.93;;;;;;;;;;5043652;28;20056;-73
2022/08/10 14:01:39;;;;;;;6.82;6.22;;;;;;;;;;5050967;28;20085;-72
2022/08/10 14:04:05;;;;;;;7.68;6.45;;;;;;;;;;5052437;28;20505;-72
2022/08/10 14:06:32;;;;;;;7.47;6.78;;;;;;;;;;5042440;28;20025;-73
2022/08/10 14:09:11;;;;;;;9.15;6.20;;;;;;;;;;5061952;28;20029;-72
2022/08/10 14:11:39;;;;;;;8.00;6.38;;;;;;;;;;5063610;28;20032;-73
2022/08/10 14:14:08;;;;;;;6.78;6.15;;;;;;;;;;5053403;28;20044;-72
2022/08/10 14:16:40;;;;;;;8.15;6.82;;;;;;;;;;5064313;28;20028;-72
2022/08/10 14:19:11;;;;;;;6.85;6.28;;;;;;;;;;5053968;28;20501;-72
2022/08/10 14:21:41;;;;;;;7.75;6.00;;;;;;;;;;5058767;28;20033;-73
2022/08/10 14:24:18;;;;;;;6.90;6.30;;;;;;;;;;5056597;28;20028;-73
2022/08/10 14:26:46;;;;;;;6.82;5.85;;;;;;;;;;5062910;28;20149;-74
2022/08/10 14:29:13;;;;;;;8.98;5.95;;;;;;;;;;5063847;28;20493;-73
2022/08/10 14:31:42;;;;;;;6.93;6.22;;;;;;;;;;5063813;28;20029;-73
2022/08/10 14:34:09;;;;;;;7.38;6.22;;;;;;;;;;5063585;28;20054;-74
2022/08/10 14:36:50;;;;;;;11.82;6.78;;;;;;;;;;5060898;28;20027;-74
2022/08/10 14:39:28;;;;;;;7.38;5.93;;;;;;;;;;5063526;28;20174;-74
2022/08/10 14:41:56;;;;;;;7.18;6.30;;;;;;;;;;5063443;28;20347;-73
2022/08/10 14:44:24;;;;;;;6.80;5.47;;;;;;;;;;5060128;28;20625;-74
2022/08/10 14:46:55;;;;;;;5.28;4.70;;;;;;;;;;5061814;28;20414;-74
2022/08/10 14:49:22;;;;;;;6.55;4.70;;;;;;;;;;5061857;28;20020;-74
2022/08/10 14:51:49;;;;;;;6.47;4.20;;;;;;;;;;5061598;28;20032;-73
2022/08/10 14:54:16;;;;;;;5.63;4.45;;;;;;;;;;5061546;28;20036;-74
2022/08/10 14:56:44;;;;;;;6.03;3.88;;;;;;;;;;5060151;28;20016;-74
2022/08/10 14:59:10;;;;;;;3.92;3.50;;;;;;;;;;5062856;28;20063;-74
2022/08/10 15:01:39;;;;;;;4.55;3.78;;;;;;;;;;5056252;28;20029;-74
2022/08/10 15:04:11;;;;;;;4.10;3.50;;;;;;;;;;5043522;28;20440;-74
2022/08/10 15:06:54;;;;;;;3.78;3.42;;;;;;;;;;5049426;28;20420;-74
2022/08/10 15:09:22;;;;;;;3.92;3.53;;;;;;;;;;5042993;28;20484;-74
2022/08/10 15:11:49;;;;;;;4.00;3.58;;;;;;;;;;5042808;28;20036;-74
2022/08/10 15:14:15;;;;;;;4.53;3.85;;;;;;;;;;5042928;28;20071;-74